Sheila Ann — C6FD2 — position and weather

sailwx.info

Track history (hours):
 
Tides and Currents Weather Stations Pressure Air Temp Water Temp Dewpoint Dewpoint Depression Visibility Wind Speed Wind Dir Waves Ship Positions

Sheila Ann

Last reported at 2017-Nov-11 17:55 UTC. Time now 2017-Nov-19 05:04 UTC.
Position N 33°46' W 121°35'.

Length 225 m; draft 8.2 m.

Type: Cargo ship. MMSI: 308717000.

Date/timePositionNaut miles runAvg speedWind from/ knotsBaromVisibWave heightAir tempDewpointWater temp
2017-Nov-11 17:55N 33°46' W 121°35'2513.3
2017-Nov-11 16:04N 34°09' W 121°46'113.1
2017-Nov-11 16:00N 34°10' W 121°46'1613.2
2017-Nov-11 14:46N 34°25' W 121°54'313.1
2017-Nov-11 14:30N 34°28' W 121°55'713.1
2017-Nov-11 14:00N 34°34' W 121°58'713.0
2017-Nov-11 13:29N 34°41' W 122°01'713.5
2017-Nov-11 13:00N 34°47' W 122°05'10113.5
2017-Nov-11 05:31N 36°24' W 122°35'012.5
2017-Nov-11 05:30N 36°25' W 122°35'612.9
2017-Nov-11 05:00N 36°31' W 122°36'813.2
2017-Nov-11 04:23N 36°39' W 122°37'4312.5
2017-Nov-11 00:58N 37°22' W 122°43'4 8.9
2017-Nov-11 00:29N 37°26' W 122°43'5 9.4
2017-Nov-11 00:00N 37°30' W 122°43'5 9.6
2017-Nov-10 23:30N 37°35' W 122°44'5 9.6
2017-Nov-10 23:01N 37°40' W 122°43'611.1
2017-Nov-10 22:30N 37°45' W 122°42'711.0
2017-Nov-10 21:51N 37°47' W 122°34'412.7
2017-Nov-10 21:31N 37°49' W 122°29'510.4
2017-Nov-10 21:01N 37°48' W 122°22'5 9.7
2017-Nov-10 20:30N 37°44' W 122°20'0 0.3
2017-Nov-10 20:00N 37°44' W 122°20'0 0.1
2017-Nov-10 19:28N 37°44' W 122°20'0 0.0
2017-Nov-10 18:58N 37°44' W 122°20'0 0.0
2017-Nov-10 18:28N 37°44' W 122°20'0 0.1
2017-Nov-10 17:59N 37°44' W 122°20'0 0.0
2017-Nov-10 17:29N 37°44' W 122°20'0 0.0
2017-Nov-10 16:59N 37°44' W 122°20'0 0.0
2017-Nov-10 16:30N 37°44' W 122°20'0 0.0
2017-Nov-10 16:00N 37°44' W 122°20'0 0.0
2017-Nov-10 15:30N 37°44' W 122°20'0 0.0
2017-Nov-10 14:58N 37°44' W 122°20'0 0.1
2017-Nov-10 14:28N 37°44' W 122°20'0 0.3
2017-Nov-10 13:58N 37°44' W 122°20'0 0.2
2017-Nov-10 13:20N 37°44' W 122°20'0 0.1
2017-Nov-10 12:59N 37°44' W 122°20'0 0.0
2017-Nov-10 12:29N 37°44' W 122°20'0 0.0
2017-Nov-10 11:59N 37°44' W 122°20'0 0.0
2017-Nov-10 11:30N 37°44' W 122°20'0 0.0
2017-Nov-10 11:00N 37°44' W 122°20'0 0.0
2017-Nov-10 10:30N 37°44' W 122°20'0 0.0
2017-Nov-10 09:58N 37°44' W 122°20'0 0.1
2017-Nov-10 09:25N 37°44' W 122°20'0 0.0
2017-Nov-10 08:58N 37°44' W 122°20'0 0.1
2017-Nov-10 08:29N 37°44' W 122°20'0 0.2
2017-Nov-10 07:59N 37°44' W 122°20'0 0.1
2017-Nov-10 07:29N 37°44' W 122°20'0 0.1
2017-Nov-10 07:00N 37°44' W 122°20'0 0.0
2017-Nov-10 06:30N 37°44' W 122°20'0 0.0
2017-Nov-10 06:00N 37°44' W 122°20'0 0.0
2017-Nov-10 05:28N 37°44' W 122°20'0 0.0
2017-Nov-10 04:58N 37°44' W 122°20'0 0.0
2017-Nov-10 04:28N 37°44' W 122°20'0 0.1
2017-Nov-10 03:59N 37°44' W 122°20'0 0.0
2017-Nov-10 03:29N 37°44' W 122°20'0 0.0
2017-Nov-10 02:56N 37°44' W 122°20'0 0.1
2017-Nov-10 02:30N 37°44' W 122°20'0 0.0
2017-Nov-10 02:00N 37°44' W 122°20'0 0.0
2017-Nov-10 01:30N 37°44' W 122°20'0 0.0
2017-Nov-10 00:58N 37°44' W 122°20'0 0.2
2017-Nov-10 00:28N 37°44' W 122°20'0 0.2
2017-Nov-09 23:58N 37°44' W 122°20'0 0.2
2017-Nov-09 23:29N 37°44' W 122°20'0 0.1
2017-Nov-09 22:59N 37°44' W 122°20'0 0.0
2017-Nov-09 22:29N 37°44' W 122°20'0 0.0
2017-Nov-09 22:00N 37°44' W 122°20'0 0.1
2017-Nov-09 21:30N 37°44' W 122°20'0 0.1
2017-Nov-09 21:00N 37°44' W 122°20'0 0.0
2017-Nov-09 20:31N 37°44' W 122°20'0 0.1
2017-Nov-09 19:58N 37°44' W 122°20'0 0.4
2017-Nov-09 19:28N 37°44' W 122°20'0 0.1
2017-Nov-09 19:01N 37°44' W 122°20'1 2.0
2017-Nov-09 18:30N 37°43' W 122°21'4 7.1
2017-Nov-09 18:00N 37°40' W 122°19'4 8.4
2017-Nov-09 17:31N 37°36' W 122°17'510.0
2017-Nov-09 16:59N 37°33' W 122°12'2 3.7
2017-Nov-09 16:29N 37°31' W 122°12'0 0.2
2017-Nov-09 16:00N 37°31' W 122°13'0 0.0
2017-Nov-09 15:23N 37°31' W 122°13'0 0.0
2017-Nov-09 14:59N 37°31' W 122°13'0 0.0
2017-Nov-09 14:26N 37°31' W 122°13'0 0.0
2017-Nov-09 13:57N 37°31' W 122°13'0 0.0
2017-Nov-09 13:24N 37°31' W 122°13'0 0.0
2017-Nov-09 12:57N 37°31' W 122°13'0 0.0
2017-Nov-09 12:28N 37°31' W 122°13'0 0.0
2017-Nov-09 11:58N 37°31' W 122°13'0 0.0
2017-Nov-09 11:28N 37°31' W 122°13'0 0.0
2017-Nov-09 10:50N 37°31' W 122°13'0 0.0
2017-Nov-09 10:26N 37°31' W 122°13'0 0.0
2017-Nov-09 09:50N 37°31' W 122°13'0 0.0
2017-Nov-09 09:21N 37°31' W 122°13'0 0.0
2017-Nov-09 09:00N 37°31' W 122°13'0 0.0
2017-Nov-09 08:27N 37°31' W 122°13'0 0.0
2017-Nov-09 07:58N 37°31' W 122°13'0 0.0
2017-Nov-09 07:28N 37°31' W 122°13'0 0.0
2017-Nov-09 06:58N 37°31' W 122°13'0 0.0
2017-Nov-09 06:14N 37°31' W 122°13'0 0.0
2017-Nov-09 05:56N 37°31' W 122°13'0 0.0
2017-Nov-09 05:26N 37°31' W 122°13'0 0.0
2017-Nov-09 04:57N 37°31' W 122°13'0 0.0
2017-Nov-09 04:21N 37°31' W 122°13'0 0.0
2017-Nov-09 03:57N 37°31' W 122°13'0 0.0
2017-Nov-09 02:46N 37°31' W 122°13'0 0.0
2017-Nov-09 01:05N 37°31' W 122°13'0 0.0
2017-Nov-09 00:56N 37°31' W 122°13'0 0.0
2017-Nov-09 00:29N 37°31' W 122°13'0 0.0
2017-Nov-08 23:54N 37°31' W 122°13'0 0.0
2017-Nov-08 23:24N 37°31' W 122°13'0 0.0
2017-Nov-08 22:54N 37°31' W 122°13'0 0.0
2017-Nov-08 22:25N 37°31' W 122°13'0 0.0
2017-Nov-08 21:55N 37°31' W 122°13'0 0.0
2017-Nov-08 21:25N 37°31' W 122°13'1 1.0
2017-Nov-08 20:54N 37°31' W 122°12'2 4.6
2017-Nov-08 20:29N 37°33' W 122°12'4 7.4
2017-Nov-08 19:57N 37°36' W 122°16'4 9.4
2017-Nov-08 19:30N 37°39' W 122°19'4 7.3
2017-Nov-08 19:00N 37°42' W 122°21'3 6.5
2017-Nov-08 18:30N 37°45' W 122°21'0 0.4
2017-Nov-08 18:00N 37°46' W 122°21'0 0.1
2017-Nov-08 17:28N 37°46' W 122°21'0 0.0
2017-Nov-08 16:58N 37°46' W 122°21'0 0.0
2017-Nov-08 16:28N 37°46' W 122°21'0 0.0
2017-Nov-08 15:59N 37°46' W 122°21'0 0.0
2017-Nov-08 15:29N 37°46' W 122°21'0 0.0
2017-Nov-08 14:59N 37°46' W 122°21'0 0.0
2017-Nov-08 14:30N 37°46' W 122°21'0 0.0
2017-Nov-08 14:00N 37°46' W 122°21'0 0.0
2017-Nov-08 13:30N 37°46' W 122°21'0 0.1
2017-Nov-08 13:01N 37°46' W 122°21'0 0.2
2017-Nov-08 12:28N 37°46' W 122°21'0 0.2
2017-Nov-08 11:58N 37°45' W 122°21'0 0.1
2017-Nov-08 11:29N 37°45' W 122°21'0 0.0
2017-Nov-08 10:59N 37°45' W 122°21'0 0.0
2017-Nov-08 10:29N 37°45' W 122°21'0 0.0
2017-Nov-08 10:00N 37°45' W 122°21'0 0.0
2017-Nov-08 09:30N 37°45' W 122°21'0 0.1
2017-Nov-08 09:00N 37°45' W 122°21'0 0.1
2017-Nov-08 08:31N 37°45' W 122°21'0 0.1
2017-Nov-08 07:58N 37°45' W 122°21'0 0.1
2017-Nov-08 07:28N 37°45' W 122°21'0 0.0
2017-Nov-08 06:58N 37°45' W 122°21'0 0.0
2017-Nov-08 06:29N 37°45' W 122°21'0 0.1
2017-Nov-08 05:59N 37°45' W 122°21'0 0.4
2017-Nov-08 05:29N 37°46' W 122°21'0 0.1
2017-Nov-08 04:57N 37°46' W 122°21'0 0.0
2017-Nov-08 04:30N 37°46' W 122°21'0 0.1
2017-Nov-08 04:00N 37°46' W 122°21'0 0.0
2017-Nov-08 03:25N 37°46' W 122°21'0 0.0
2017-Nov-08 02:58N 37°46' W 122°21'0 0.1
2017-Nov-08 02:28N 37°46' W 122°21'0 0.0
2017-Nov-08 01:59N 37°46' W 122°21'0 0.0
2017-Nov-08 01:29N 37°46' W 122°21'0 0.0
2017-Nov-08 00:59N 37°46' W 122°21'0 0.0
2017-Nov-08 00:30N 37°46' W 122°21'0 0.0
2017-Nov-08 00:00N 37°46' W 122°21'0 0.0
2017-Nov-07 23:30N 37°46' W 122°21'0 0.1
2017-Nov-07 22:58N 37°46' W 122°21'0 0.2
2017-Nov-07 22:28N 37°46' W 122°21'0 0.3
2017-Nov-07 21:58N 37°45' W 122°21'0 0.1
2017-Nov-07 21:29N 37°45' W 122°21'0 0.1
2017-Nov-07 20:59N 37°45' W 122°21'0 0.0
2017-Nov-07 20:29N 37°45' W 122°21'0 0.0
2017-Nov-07 20:00N 37°45' W 122°21'0 0.0
2017-Nov-07 19:30N 37°45' W 122°21'0 0.0
2017-Nov-07 19:00N 37°45' W 122°21'0 0.0
2017-Nov-07 18:30N 37°45' W 122°21'0 0.0
2017-Nov-07 17:58N 37°45' W 122°21'0 0.1
2017-Nov-07 17:25N 37°45' W 122°21'0 0.0
2017-Nov-07 16:58N 37°45' W 122°21'0 0.3
2017-Nov-07 16:26N 37°46' W 122°21'0 0.2
2017-Nov-07 15:59N 37°46' W 122°21'0 0.0
2017-Nov-07 15:23N 37°46' W 122°21'0 0.0
2017-Nov-07 15:00N 37°46' W 122°21'0 0.0
2017-Nov-07 14:30N 37°46' W 122°21'0 0.0
2017-Nov-07 14:00N 37°46' W 122°21'0 0.0
2017-Nov-07 13:28N 37°46' W 122°21'0 0.0
2017-Nov-07 12:58N 37°46' W 122°21'0 0.0
2017-Nov-07 12:28N 37°46' W 122°21'0 0.1
2017-Nov-07 11:59N 37°46' W 122°21'0 0.3
2017-Nov-07 11:23N 37°45' W 122°21'0 0.2
2017-Nov-07 10:59N 37°45' W 122°21'0 0.0
2017-Nov-07 10:30N 37°45' W 122°21'0 0.1
2017-Nov-07 10:00N 37°45' W 122°21'0 0.0
2017-Nov-07 09:30N 37°45' W 122°21'0 0.0
2017-Nov-07 09:01N 37°45' W 122°21'0 0.0
2017-Nov-07 08:25N 37°45' W 122°21'0 0.0
2017-Nov-07 08:00N 37°45' W 122°21'0 0.0
2017-Nov-07 07:30N 37°45' W 122°21'0 0.0
2017-Nov-07 07:00N 37°45' W 122°21'0 0.1
2017-Nov-07 06:31N 37°45' W 122°21'0 0.1
2017-Nov-07 06:00N 37°45' W 122°21'0 0.1
2017-Nov-07 05:30N 37°45' W 122°21'0 0.1
2017-Nov-07 05:00N 37°45' W 122°21'0 0.3
2017-Nov-07 04:30N 37°46' W 122°22'0 0.1
2017-Nov-07 04:00N 37°46' W 122°22'0 0.1
2017-Nov-07 03:30N 37°46' W 122°22'0 0.0
2017-Nov-07 03:00N 37°46' W 122°22'0 0.0
2017-Nov-07 02:30N 37°46' W 122°22'0 0.1
2017-Nov-07 02:00N 37°46' W 122°21'1 2.4
2017-Nov-07 01:31N 37°47' W 122°22'4 8.3
2017-Nov-07 01:00N 37°49' W 122°26'5 9.6
2017-Nov-07 00:30N 37°48' W 122°32'610.7
2017-Nov-06 23:57N 37°46' W 122°39'12 9.6
2017-Nov-06 22:41N 37°49' W 122°54'210.3
2017-Nov-06 22:30N 37°50' W 122°56'510.2
2017-Nov-06 22:00N 37°53' W 123°01'510.0
2017-Nov-06 21:30N 37°56' W 123°07'510.1
2017-Nov-06 20:59N 37°59' W 123°12'510.0
2017-Nov-06 20:30N 38°02' W 123°16'  
2017-Nov-03 23:54N 50°59' W 127°50'411.3
2017-Nov-03 23:30N 50°57' W 127°43'714.7
2017-Nov-03 23:01N 50°53' W 127°35'714.8
2017-Nov-03 22:30N 50°48' W 127°25'914.2
2017-Nov-03 21:53N 50°41' W 127°16'7 0.2
2017-Nov-02 16:17N 50°37' W 127°09'0 0.1
2017-Nov-02 15:58N 50°37' W 127°09'2 2.9
2017-Nov-02 15:13N 50°38' W 127°11'1014.2
2017-Nov-02 14:31N 50°46' W 127°22'016.3
2017-Nov-02 14:30N 50°46' W 127°22'714.1
2017-Nov-02 14:00N 50°51' W 127°30'713.9
2017-Nov-02 13:30N 50°55' W 127°39'612.3
2017-Nov-02 13:00N 50°58' W 127°47'3 5.9
2017-Nov-02 12:30N 50°59' W 127°51'  
Track history (hours):
 
Tides and Currents Weather Stations Pressure Air Temp Water Temp Dewpoint Dewpoint Depression Visibility Wind Speed Wind Dir Waves Ship Positions

Sheila Ann

Last reported at 2017-Nov-11 17:55 UTC. Time now 2017-Nov-19 05:04 UTC.
Position N 33°46' W 121°35'.

Length 225 m; draft 8.2 m.

Type: Cargo ship. MMSI: 308717000.

Date/timePositionNaut miles runAvg speedWind from/ knotsBaromVisibWave heightAir tempDewpointWater temp
2017-Nov-11 17:55N 33°46' W 121°35'2513.3
2017-Nov-11 16:04N 34°09' W 121°46'113.1
2017-Nov-11 16:00N 34°10' W 121°46'1613.2
2017-Nov-11 14:46N 34°25' W 121°54'313.1
2017-Nov-11 14:30N 34°28' W 121°55'713.1
2017-Nov-11 14:00N 34°34' W 121°58'713.0
2017-Nov-11 13:29N 34°41' W 122°01'713.5
2017-Nov-11 13:00N 34°47' W 122°05'10113.5
2017-Nov-11 05:31N 36°24' W 122°35'012.5
2017-Nov-11 05:30N 36°25' W 122°35'612.9
2017-Nov-11 05:00N 36°31' W 122°36'813.2
2017-Nov-11 04:23N 36°39' W 122°37'4312.5
2017-Nov-11 00:58N 37°22' W 122°43'4 8.9
2017-Nov-11 00:29N 37°26' W 122°43'5 9.4
2017-Nov-11 00:00N 37°30' W 122°43'5 9.6
2017-Nov-10 23:30N 37°35' W 122°44'5 9.6
2017-Nov-10 23:01N 37°40' W 122°43'611.1
2017-Nov-10 22:30N 37°45' W 122°42'711.0
2017-Nov-10 21:51N 37°47' W 122°34'412.7
2017-Nov-10 21:31N 37°49' W 122°29'510.4
2017-Nov-10 21:01N 37°48' W 122°22'5 9.7
2017-Nov-10 20:30N 37°44' W 122°20'0 0.3
2017-Nov-10 20:00N 37°44' W 122°20'0 0.1
2017-Nov-10 19:28N 37°44' W 122°20'0 0.0
2017-Nov-10 18:58N 37°44' W 122°20'0 0.0
2017-Nov-10 18:28N 37°44' W 122°20'0 0.1
2017-Nov-10 17:59N 37°44' W 122°20'0 0.0
2017-Nov-10 17:29N 37°44' W 122°20'0 0.0
2017-Nov-10 16:59N 37°44' W 122°20'0 0.0
2017-Nov-10 16:30N 37°44' W 122°20'0 0.0
2017-Nov-10 16:00N 37°44' W 122°20'0 0.0
2017-Nov-10 15:30N 37°44' W 122°20'0 0.0
2017-Nov-10 14:58N 37°44' W 122°20'0 0.1
2017-Nov-10 14:28N 37°44' W 122°20'0 0.3
2017-Nov-10 13:58N 37°44' W 122°20'0 0.2
2017-Nov-10 13:20N 37°44' W 122°20'0 0.1
2017-Nov-10 12:59N 37°44' W 122°20'0 0.0
2017-Nov-10 12:29N 37°44' W 122°20'0 0.0
2017-Nov-10 11:59N 37°44' W 122°20'0 0.0
2017-Nov-10 11:30N 37°44' W 122°20'0 0.0
2017-Nov-10 11:00N 37°44' W 122°20'0 0.0
2017-Nov-10 10:30N 37°44' W 122°20'0 0.0
2017-Nov-10 09:58N 37°44' W 122°20'0 0.1
2017-Nov-10 09:25N 37°44' W 122°20'0 0.0
2017-Nov-10 08:58N 37°44' W 122°20'0 0.1
2017-Nov-10 08:29N 37°44' W 122°20'0 0.2
2017-Nov-10 07:59N 37°44' W 122°20'0 0.1
2017-Nov-10 07:29N 37°44' W 122°20'0 0.1
2017-Nov-10 07:00N 37°44' W 122°20'0 0.0
2017-Nov-10 06:30N 37°44' W 122°20'0 0.0
2017-Nov-10 06:00N 37°44' W 122°20'0 0.0
2017-Nov-10 05:28N 37°44' W 122°20'0 0.0
2017-Nov-10 04:58N 37°44' W 122°20'0 0.0
2017-Nov-10 04:28N 37°44' W 122°20'0 0.1
2017-Nov-10 03:59N 37°44' W 122°20'0 0.0
2017-Nov-10 03:29N 37°44' W 122°20'0 0.0
2017-Nov-10 02:56N 37°44' W 122°20'0 0.1
2017-Nov-10 02:30N 37°44' W 122°20'0 0.0
2017-Nov-10 02:00N 37°44' W 122°20'0 0.0
2017-Nov-10 01:30N 37°44' W 122°20'0 0.0
2017-Nov-10 00:58N 37°44' W 122°20'0 0.2
2017-Nov-10 00:28N 37°44' W 122°20'0 0.2
2017-Nov-09 23:58N 37°44' W 122°20'0 0.2
2017-Nov-09 23:29N 37°44' W 122°20'0 0.1
2017-Nov-09 22:59N 37°44' W 122°20'0 0.0
2017-Nov-09 22:29N 37°44' W 122°20'0 0.0
2017-Nov-09 22:00N 37°44' W 122°20'0 0.1
2017-Nov-09 21:30N 37°44' W 122°20'0 0.1
2017-Nov-09 21:00N 37°44' W 122°20'0 0.0
2017-Nov-09 20:31N 37°44' W 122°20'0 0.1
2017-Nov-09 19:58N 37°44' W 122°20'0 0.4
2017-Nov-09 19:28N 37°44' W 122°20'0 0.1
2017-Nov-09 19:01N 37°44' W 122°20'1 2.0
2017-Nov-09 18:30N 37°43' W 122°21'4 7.1
2017-Nov-09 18:00N 37°40' W 122°19'4 8.4
2017-Nov-09 17:31N 37°36' W 122°17'510.0
2017-Nov-09 16:59N 37°33' W 122°12'2 3.7
2017-Nov-09 16:29N 37°31' W 122°12'0 0.2
2017-Nov-09 16:00N 37°31' W 122°13'0 0.0
2017-Nov-09 15:23N 37°31' W 122°13'0 0.0
2017-Nov-09 14:59N 37°31' W 122°13'0 0.0
2017-Nov-09 14:26N 37°31' W 122°13'0 0.0
2017-Nov-09 13:57N 37°31' W 122°13'0 0.0
2017-Nov-09 13:24N 37°31' W 122°13'0 0.0
2017-Nov-09 12:57N 37°31' W 122°13'0 0.0
2017-Nov-09 12:28N 37°31' W 122°13'0 0.0
2017-Nov-09 11:58N 37°31' W 122°13'0 0.0
2017-Nov-09 11:28N 37°31' W 122°13'0 0.0
2017-Nov-09 10:50N 37°31' W 122°13'0 0.0
2017-Nov-09 10:26N 37°31' W 122°13'0 0.0
2017-Nov-09 09:50N 37°31' W 122°13'0 0.0
2017-Nov-09 09:21N 37°31' W 122°13'0 0.0
2017-Nov-09 09:00N 37°31' W 122°13'0 0.0
2017-Nov-09 08:27N 37°31' W 122°13'0 0.0
2017-Nov-09 07:58N 37°31' W 122°13'0 0.0
2017-Nov-09 07:28N 37°31' W 122°13'0 0.0
2017-Nov-09 06:58N 37°31' W 122°13'0 0.0
2017-Nov-09 06:14N 37°31' W 122°13'0 0.0
2017-Nov-09 05:56N 37°31' W 122°13'0 0.0
2017-Nov-09 05:26N 37°31' W 122°13'0 0.0
2017-Nov-09 04:57N 37°31' W 122°13'0 0.0
2017-Nov-09 04:21N 37°31' W 122°13'0 0.0
2017-Nov-09 03:57N 37°31' W 122°13'0 0.0
2017-Nov-09 02:46N 37°31' W 122°13'0 0.0
2017-Nov-09 01:05N 37°31' W 122°13'0 0.0
2017-Nov-09 00:56N 37°31' W 122°13'0 0.0
2017-Nov-09 00:29N 37°31' W 122°13'0 0.0
2017-Nov-08 23:54N 37°31' W 122°13'0 0.0
2017-Nov-08 23:24N 37°31' W 122°13'0 0.0
2017-Nov-08 22:54N 37°31' W 122°13'0 0.0
2017-Nov-08 22:25N 37°31' W 122°13'0 0.0
2017-Nov-08 21:55N 37°31' W 122°13'0 0.0
2017-Nov-08 21:25N 37°31' W 122°13'1 1.0
2017-Nov-08 20:54N 37°31' W 122°12'2 4.6
2017-Nov-08 20:29N 37°33' W 122°12'4 7.4
2017-Nov-08 19:57N 37°36' W 122°16'4 9.4
2017-Nov-08 19:30N 37°39' W 122°19'4 7.3
2017-Nov-08 19:00N 37°42' W 122°21'3 6.5
2017-Nov-08 18:30N 37°45' W 122°21'0 0.4
2017-Nov-08 18:00N 37°46' W 122°21'0 0.1
2017-Nov-08 17:28N 37°46' W 122°21'0 0.0
2017-Nov-08 16:58N 37°46' W 122°21'0 0.0
2017-Nov-08 16:28N 37°46' W 122°21'0 0.0
2017-Nov-08 15:59N 37°46' W 122°21'0 0.0
2017-Nov-08 15:29N 37°46' W 122°21'0 0.0
2017-Nov-08 14:59N 37°46' W 122°21'0 0.0
2017-Nov-08 14:30N 37°46' W 122°21'0 0.0
2017-Nov-08 14:00N 37°46' W 122°21'0 0.0
2017-Nov-08 13:30N 37°46' W 122°21'0 0.1
2017-Nov-08 13:01N 37°46' W 122°21'0 0.2
2017-Nov-08 12:28N 37°46' W 122°21'0 0.2
2017-Nov-08 11:58N 37°45' W 122°21'0 0.1
2017-Nov-08 11:29N 37°45' W 122°21'0 0.0
2017-Nov-08 10:59N 37°45' W 122°21'0 0.0
2017-Nov-08 10:29N 37°45' W 122°21'0 0.0
2017-Nov-08 10:00N 37°45' W 122°21'0 0.0
2017-Nov-08 09:30N 37°45' W 122°21'0 0.1
2017-Nov-08 09:00N 37°45' W 122°21'0 0.1
2017-Nov-08 08:31N 37°45' W 122°21'0 0.1
2017-Nov-08 07:58N 37°45' W 122°21'0 0.1
2017-Nov-08 07:28N 37°45' W 122°21'0 0.0
2017-Nov-08 06:58N 37°45' W 122°21'0 0.0
2017-Nov-08 06:29N 37°45' W 122°21'0 0.1
2017-Nov-08 05:59N 37°45' W 122°21'0 0.4
2017-Nov-08 05:29N 37°46' W 122°21'0 0.1
2017-Nov-08 04:57N 37°46' W 122°21'0 0.0
2017-Nov-08 04:30N 37°46' W 122°21'0 0.1
2017-Nov-08 04:00N 37°46' W 122°21'0 0.0
2017-Nov-08 03:25N 37°46' W 122°21'0 0.0
2017-Nov-08 02:58N 37°46' W 122°21'0 0.1
2017-Nov-08 02:28N 37°46' W 122°21'0 0.0
2017-Nov-08 01:59N 37°46' W 122°21'0 0.0
2017-Nov-08 01:29N 37°46' W 122°21'0 0.0
2017-Nov-08 00:59N 37°46' W 122°21'0 0.0
2017-Nov-08 00:30N 37°46' W 122°21'0 0.0
2017-Nov-08 00:00N 37°46' W 122°21'0 0.0
2017-Nov-07 23:30N 37°46' W 122°21'0 0.1
2017-Nov-07 22:58N 37°46' W 122°21'0 0.2
2017-Nov-07 22:28N 37°46' W 122°21'0 0.3
2017-Nov-07 21:58N 37°45' W 122°21'0 0.1
2017-Nov-07 21:29N 37°45' W 122°21'0 0.1
2017-Nov-07 20:59N 37°45' W 122°21'0 0.0
2017-Nov-07 20:29N 37°45' W 122°21'0 0.0
2017-Nov-07 20:00N 37°45' W 122°21'0 0.0
2017-Nov-07 19:30N 37°45' W 122°21'0 0.0
2017-Nov-07 19:00N 37°45' W 122°21'0 0.0
2017-Nov-07 18:30N 37°45' W 122°21'0 0.0
2017-Nov-07 17:58N 37°45' W 122°21'0 0.1
2017-Nov-07 17:25N 37°45' W 122°21'0 0.0
2017-Nov-07 16:58N 37°45' W 122°21'0 0.3
2017-Nov-07 16:26N 37°46' W 122°21'0 0.2
2017-Nov-07 15:59N 37°46' W 122°21'0 0.0
2017-Nov-07 15:23N 37°46' W 122°21'0 0.0
2017-Nov-07 15:00N 37°46' W 122°21'0 0.0
2017-Nov-07 14:30N 37°46' W 122°21'0 0.0
2017-Nov-07 14:00N 37°46' W 122°21'0 0.0
2017-Nov-07 13:28N 37°46' W 122°21'0 0.0
2017-Nov-07 12:58N 37°46' W 122°21'0 0.0
2017-Nov-07 12:28N 37°46' W 122°21'0 0.1
2017-Nov-07 11:59N 37°46' W 122°21'0 0.3
2017-Nov-07 11:23N 37°45' W 122°21'0 0.2
2017-Nov-07 10:59N 37°45' W 122°21'0 0.0
2017-Nov-07 10:30N 37°45' W 122°21'0 0.1
2017-Nov-07 10:00N 37°45' W 122°21'0 0.0
2017-Nov-07 09:30N 37°45' W 122°21'0 0.0
2017-Nov-07 09:01N 37°45' W 122°21'0 0.0
2017-Nov-07 08:25N 37°45' W 122°21'0 0.0
2017-Nov-07 08:00N 37°45' W 122°21'0 0.0
2017-Nov-07 07:30N 37°45' W 122°21'0 0.0
2017-Nov-07 07:00N 37°45' W 122°21'0 0.1
2017-Nov-07 06:31N 37°45' W 122°21'0 0.1
2017-Nov-07 06:00N 37°45' W 122°21'0 0.1
2017-Nov-07 05:30N 37°45' W 122°21'0 0.1
2017-Nov-07 05:00N 37°45' W 122°21'0 0.3
2017-Nov-07 04:30N 37°46' W 122°22'0 0.1
2017-Nov-07 04:00N 37°46' W 122°22'0 0.1
2017-Nov-07 03:30N 37°46' W 122°22'0 0.0
2017-Nov-07 03:00N 37°46' W 122°22'0 0.0
2017-Nov-07 02:30N 37°46' W 122°22'0 0.1
2017-Nov-07 02:00N 37°46' W 122°21'1 2.4
2017-Nov-07 01:31N 37°47' W 122°22'4 8.3
2017-Nov-07 01:00N 37°49' W 122°26'5 9.6
2017-Nov-07 00:30N 37°48' W 122°32'610.7
2017-Nov-06 23:57N 37°46' W 122°39'12 9.6
2017-Nov-06 22:41N 37°49' W 122°54'210.3
2017-Nov-06 22:30N 37°50' W 122°56'510.2
2017-Nov-06 22:00N 37°53' W 123°01'510.0
2017-Nov-06 21:30N 37°56' W 123°07'510.1
2017-Nov-06 20:59N 37°59' W 123°12'510.0
2017-Nov-06 20:30N 38°02' W 123°16'  
2017-Nov-03 23:54N 50°59' W 127°50'411.3
2017-Nov-03 23:30N 50°57' W 127°43'714.7
2017-Nov-03 23:01N 50°53' W 127°35'714.8
2017-Nov-03 22:30N 50°48' W 127°25'914.2
2017-Nov-03 21:53N 50°41' W 127°16'7 0.2
2017-Nov-02 16:17N 50°37' W 127°09'0 0.1
2017-Nov-02 15:58N 50°37' W 127°09'2 2.9
2017-Nov-02 15:13N 50°38' W 127°11'1014.2
2017-Nov-02 14:31N 50°46' W 127°22'016.3
2017-Nov-02 14:30N 50°46' W 127°22'714.1
2017-Nov-02 14:00N 50°51' W 127°30'713.9
2017-Nov-02 13:30N 50°55' W 127°39'612.3
2017-Nov-02 13:00N 50°58' W 127°47'3 5.9
2017-Nov-02 12:30N 50°59' W 127°51'  

Dump ship's entire track history